Time;durP1;ratioP1;P1;durP2;ratioP2;P2;SDS_P1;SDS_P2;PMS_P1;PMS_P2;Temp;Humidity;BMP_temperature;BMP_pressure;BME280_temperature;BME280_humidity;BME280_pressure;Samples;Min_cycle;Max_cycle;Signal;HPM_P1;HPM_P2
2021/03/14 00:01:33;;;;;;;1.35;0.85;;;5.10;99.90;;;;;;4958296;27;20092;-80
2021/03/14 00:03:57;;;;;;;3.97;1.15;;;5.00;99.90;;;;;;4955722;27;20096;-80
2021/03/14 00:06:21;;;;;;;3.33;1.10;;;5.00;99.90;;;;;;4955541;27;20090;-79
2021/03/14 00:08:43;;;;;;;1.33;0.85;;;5.00;99.90;;;;;;4946377;27;20095;-81
2021/03/14 00:11:09;;;;;;;3.33;1.20;;;5.00;99.90;;;;;;4958633;27;20142;-80
2021/03/14 00:13:35;;;;;;;11.38;1.00;;;5.00;99.90;;;;;;4932756;27;20487;-81
2021/03/14 00:15:59;;;;;;;2.63;1.00;;;4.90;99.90;;;;;;4958767;27;20559;-79
2021/03/14 00:18:28;;;;;;;0.65;0.43;;;4.80;99.90;;;;;;4957241;27;20153;-80
2021/03/14 00:20:51;;;;;;;8.45;1.15;;;4.80;99.90;;;;;;4950218;27;20100;-80
2021/03/14 00:23:14;;;;;;;2.28;0.98;;;4.80;99.90;;;;;;4955394;27;20135;-80
2021/03/14 00:25:38;;;;;;;3.10;0.68;;;4.90;99.90;;;;;;4958915;27;20583;-80
2021/03/14 00:28:01;;;;;;;2.63;0.82;;;4.90;99.90;;;;;;4958719;27;20163;-80
2021/03/14 00:30:26;;;;;;;2.92;0.63;;;5.00;99.90;;;;;;4959897;27;20925;-81
2021/03/14 00:32:49;;;;;;;4.47;0.65;;;5.00;99.90;;;;;;4955323;27;20413;-79
2021/03/14 00:35:15;;;;;;;0.40;0.40;;;5.00;99.90;;;;;;4960737;27;20083;-79
2021/03/14 00:37:39;;;;;;;1.45;0.45;;;5.00;99.90;;;;;;4951876;27;20097;-80
2021/03/14 00:40:03;;;;;;;1.85;0.60;;;5.00;99.90;;;;;;4953158;27;20097;-79
2021/03/14 00:42:27;;;;;;;0.70;0.50;;;4.90;99.90;;;;;;4959074;27;20089;-80
2021/03/14 00:44:50;;;;;;;0.73;0.40;;;5.00;99.90;;;;;;4954465;27;20121;-80
2021/03/14 00:47:15;;;;;;;0.57;0.43;;;4.90;99.90;;;;;;4956274;27;20154;-80
2021/03/14 00:49:38;;;;;;;5.63;0.83;;;4.90;99.90;;;;;;4957551;27;20086;-81
2021/03/14 00:52:02;;;;;;;1.45;0.40;;;4.90;99.90;;;;;;4956543;27;20478;-81
2021/03/14 00:54:25;;;;;;;1.60;0.38;;;4.90;99.90;;;;;;4946173;27;20092;-80
2021/03/14 00:56:48;;;;;;;3.03;0.50;;;4.80;99.90;;;;;;4958501;27;20096;-79
2021/03/14 00:59:11;;;;;;;3.15;0.50;;;4.90;99.90;;;;;;4958341;27;20172;-80
2021/03/14 01:01:34;;;;;;;1.33;0.57;;;4.80;99.90;;;;;;4955909;27;20170;-80
2021/03/14 01:03:57;;;;;;;0.80;0.50;;;4.80;99.90;;;;;;4952768;27;20093;-78
2021/03/14 01:06:19;;;;;;;3.83;0.50;;;4.80;99.90;;;;;;4961378;27;20090;-80
2021/03/14 01:08:45;;;;;;;0.47;0.43;;;4.80;99.90;;;;;;4957796;27;20129;-80
2021/03/14 01:11:07;;;;;;;0.50;0.43;;;4.70;99.90;;;;;;4960835;27;20078;-79
2021/03/14 01:13:30;;;;;;;0.98;0.70;;;4.70;99.90;;;;;;4955054;27;20101;-80
2021/03/14 01:15:54;;;;;;;0.60;0.60;;;4.60;99.90;;;;;;4954008;27;20093;-80
2021/03/14 01:18:18;;;;;;;2.72;0.50;;;4.60;99.90;;;;;;4956476;27;20521;-79
2021/03/14 01:20:40;;;;;;;0.50;0.38;;;4.60;99.90;;;;;;4953553;27;20089;-80
2021/03/14 01:23:03;;;;;;;1.55;0.60;;;4.60;99.90;;;;;;4955836;27;20413;-78
2021/03/14 01:25:27;;;;;;;0.73;0.52;;;4.60;99.90;;;;;;4962628;27;20086;-80
2021/03/14 01:27:50;;;;;;;0.88;0.63;;;;;;;;;;4958045;27;20090;-80
2021/03/14 01:30:14;;;;;;;1.58;0.60;;;4.60;99.90;;;;;;4948584;27;20108;-78
2021/03/14 01:32:37;;;;;;;0.43;0.22;;;4.50;99.90;;;;;;4958292;27;20113;-80
2021/03/14 01:35:00;;;;;;;1.88;0.70;;;4.60;99.90;;;;;;4954144;27;20658;-80
2021/03/14 01:37:24;;;;;;;4.35;0.63;;;4.50;99.90;;;;;;4957734;27;20116;-80
2021/03/14 01:39:47;;;;;;;1.05;0.60;;;4.50;99.90;;;;;;4958873;27;20504;-80
2021/03/14 01:42:11;;;;;;;3.78;0.77;;;4.50;99.90;;;;;;4956279;27;20170;-80
2021/03/14 01:44:34;;;;;;;2.22;0.60;;;4.50;99.90;;;;;;4957649;27;20544;-79
2021/03/14 01:46:58;;;;;;;0.85;0.70;;;4.40;99.90;;;;;;4953194;27;20090;-80
2021/03/14 01:49:21;;;;;;;1.13;0.80;;;4.40;99.90;;;;;;4955318;27;20093;-79
2021/03/14 01:51:44;;;;;;;1.20;0.70;;;4.40;99.90;;;;;;4960837;27;20145;-80
2021/03/14 01:54:08;;;;;;;1.05;0.73;;;4.30;99.90;;;;;;4956850;27;20688;-80
2021/03/14 01:56:31;;;;;;;3.90;0.77;;;4.30;99.90;;;;;;4955357;27;20440;-80
2021/03/14 01:58:55;;;;;;;0.90;0.55;;;4.20;99.90;;;;;;4954383;27;20089;-80
2021/03/14 02:01:18;;;;;;;1.00;0.70;;;4.20;99.90;;;;;;4954094;27;20138;-79
2021/03/14 02:03:41;;;;;;;2.42;0.88;;;4.20;99.90;;;;;;4958773;27;20090;-81
2021/03/14 02:06:04;;;;;;;1.13;0.88;;;4.10;99.90;;;;;;4944337;27;20105;-80
2021/03/14 02:08:27;;;;;;;0.80;0.70;;;4.10;99.90;;;;;;4949208;27;20085;-81
2021/03/14 02:10:52;;;;;;;1.02;0.63;;;4.00;99.90;;;;;;4954275;27;20135;-79
2021/03/14 02:13:19;;;;;;;1.90;0.80;;;4.00;99.90;;;;;;4956507;27;20467;-80
2021/03/14 02:15:47;;;;;;;1.77;0.90;;;4.00;99.90;;;;;;4954304;27;20081;-80
2021/03/14 02:18:12;;;;;;;0.93;0.70;;;4.10;99.90;;;;;;4953409;27;20578;-80
2021/03/14 02:20:37;;;;;;;1.23;0.80;;;4.00;99.90;;;;;;4954529;27;20100;-81
2021/03/14 02:23:15;;;;;;;1.63;0.80;;;4.00;99.90;;;;;;4940565;27;20081;-79
2021/03/14 02:25:47;;;;;;;2.30;0.90;;;4.00;99.90;;;;;;4953613;27;20113;-82
2021/03/14 02:28:12;;;;;;;0.88;0.77;;;4.00;99.90;;;;;;4955825;27;20551;-79
2021/03/14 02:30:35;;;;;;;1.90;1.13;;;4.00;99.90;;;;;;4952584;27;20105;-79
2021/03/14 02:33:00;;;;;;;1.38;0.90;;;4.00;99.90;;;;;;4938726;27;20114;-82
2021/03/14 02:35:25;;;;;;;1.85;1.10;;;3.90;99.90;;;;;;4954152;27;20086;-78
2021/03/14 02:37:51;;;;;;;2.05;0.90;;;3.90;99.90;;;;;;4958901;27;20077;-80
2021/03/14 02:40:14;;;;;;;;;;;3.70;99.90;;;;;;4958648;27;20084;-81
2021/03/14 02:42:39;;;;;;;1.85;1.00;;;3.70;99.90;;;;;;4956059;28;19970;-79
2021/03/14 02:45:03;;;;;;;3.05;1.30;;;3.70;99.90;;;;;;4953845;28;20424;-81
2021/03/14 02:47:28;;;;;;;2.13;1.08;;;3.70;99.90;;;;;;4956425;28;20103;-80
2021/03/14 02:49:52;;;;;;;4.10;0.90;;;3.70;99.90;;;;;;4958262;28;20213;-80
2021/03/14 02:52:15;;;;;;;5.50;1.33;;;3.70;99.90;;;;;;4953657;28;20428;-79
2021/03/14 02:54:39;;;;;;;2.42;1.17;;;3.70;99.90;;;;;;4955390;28;20101;-80
2021/03/14 02:57:04;;;;;;;4.40;1.48;;;3.60;99.90;;;;;;4945676;28;20089;-80
2021/03/14 02:59:27;;;;;;;4.30;2.03;;;3.60;99.90;;;;;;4943141;28;20097;-79
2021/03/14 03:01:52;;;;;;;5.75;2.58;;;3.60;99.90;;;;;;4952953;28;20086;-79
2021/03/14 03:04:18;;;;;;;7.22;3.28;;;3.50;99.90;;;;;;4957236;28;20105;-80
2021/03/14 03:06:41;;;;;;;6.45;2.45;;;3.40;99.90;;;;;;4927752;28;20090;-81
2021/03/14 03:09:05;;;;;;;8.23;3.05;;;3.40;99.90;;;;;;4953397;27;20467;-79
2021/03/14 03:11:28;;;;;;;7.47;3.30;;;3.40;99.90;;;;;;4943678;27;20082;-80
2021/03/14 03:13:54;;;;;;;5.97;3.03;;;3.40;99.90;;;;;;4953503;27;20143;-81
2021/03/14 03:16:21;;;;;;;6.57;3.45;;;3.40;99.90;;;;;;4955145;28;20089;-80
2021/03/14 03:18:45;;;;;;;9.00;4.00;;;3.40;99.90;;;;;;4951024;28;20078;-80
2021/03/14 03:21:10;;;;;;;11.60;3.92;;;3.40;99.90;;;;;;4959545;27;20460;-80
2021/03/14 03:23:34;;;;;;;14.53;3.93;;;3.40;99.90;;;;;;4962849;27;20225;-80
2021/03/14 03:26:00;;;;;;;9.82;4.47;;;3.40;99.90;;;;;;4958933;27;20120;-80
2021/03/14 03:28:24;;;;;;;14.02;5.10;;;3.40;99.90;;;;;;4956523;27;20078;-80
2021/03/14 03:30:46;;;;;;;10.93;4.78;;;3.40;99.90;;;;;;4955524;27;24745;-81
2021/03/14 03:33:10;;;;;;;14.73;4.85;;;3.40;99.90;;;;;;4958552;27;20094;-80
2021/03/14 03:35:36;;;;;;;9.23;4.63;;;3.30;99.90;;;;;;4955917;27;20114;-80
2021/03/14 03:37:59;;;;;;;10.38;4.72;;;3.40;99.90;;;;;;4954451;27;20089;-80
2021/03/14 03:40:24;;;;;;;10.73;5.18;;;3.30;99.90;;;;;;4950330;27;20161;-79
2021/03/14 03:42:52;;;;;;;10.93;4.93;;;3.20;99.90;;;;;;4951694;27;20086;-79
2021/03/14 03:45:18;;;;;;;8.48;4.13;;;3.30;99.90;;;;;;4955882;27;20085;-81
2021/03/14 03:47:43;;;;;;;10.43;5.03;;;3.30;99.90;;;;;;4958559;27;20086;-79
2021/03/14 03:50:08;;;;;;;8.57;4.82;;;3.30;99.90;;;;;;4958852;27;20085;-80
2021/03/14 03:52:33;;;;;;;9.40;4.60;;;3.30;99.90;;;;;;4955718;27;20090;-81
2021/03/14 03:54:56;;;;;;;14.10;4.10;;;3.30;99.90;;;;;;4954602;27;20147;-80
2021/03/14 03:57:20;;;;;;;14.02;5.53;;;3.30;99.90;;;;;;4960003;27;20131;-79
2021/03/14 03:59:49;;;;;;;12.13;5.75;;;3.30;99.90;;;;;;4958714;27;20512;-82
2021/03/14 04:02:13;;;;;;;14.20;5.63;;;3.40;99.90;;;;;;4957641;27;20162;-79
2021/03/14 04:04:39;;;;;;;11.25;5.43;;;3.40;99.90;;;;;;4957334;27;20086;-79
2021/03/14 04:07:04;;;;;;;13.93;4.53;;;3.40;99.90;;;;;;4953131;27;20082;-80
2021/03/14 04:09:30;;;;;;;16.08;6.63;;;3.40;99.90;;;;;;4951600;27;20127;-81
2021/03/14 04:11:56;;;;;;;10.48;5.47;;;3.50;99.90;;;;;;4954985;27;20160;-80
2021/03/14 04:14:20;;;;;;;15.77;5.78;;;3.50;99.90;;;;;;4955838;27;20216;-80
2021/03/14 04:16:44;;;;;;;12.55;4.13;;;3.50;99.90;;;;;;4957492;27;20090;-80
2021/03/14 04:19:11;;;;;;;12.40;5.82;;;3.60;99.90;;;;;;4957500;27;20092;-80
2021/03/14 04:21:35;;;;;;;7.00;3.53;;;3.50;99.90;;;;;;4956217;27;20539;-81
2021/03/14 04:23:59;;;;;;;13.20;5.80;;;3.50;99.90;;;;;;4954374;27;20112;-79
2021/03/14 04:26:23;;;;;;;10.27;4.65;;;3.60;99.90;;;;;;4957951;27;20085;-79
2021/03/14 04:28:47;;;;;;;10.27;5.05;;;3.60;99.90;;;;;;4957836;27;20114;-82
2021/03/14 04:31:12;;;;;;;11.63;5.30;;;3.60;99.90;;;;;;4957236;27;20088;-80
2021/03/14 04:33:35;;;;;;;18.90;7.03;;;3.60;99.90;;;;;;4959094;27;20512;-79
2021/03/14 04:36:00;;;;;;;15.43;5.93;;;3.60;99.90;;;;;;4949604;27;20146;-79
2021/03/14 04:38:23;;;;;;;17.70;6.88;;;3.60;99.90;;;;;;4932369;27;20089;-81
2021/03/14 04:40:47;;;;;;;18.40;5.38;;;3.60;99.90;;;;;;4948128;27;20093;-80
2021/03/14 04:43:10;;;;;;;21.83;6.78;;;3.60;99.90;;;;;;4959590;27;20164;-80
2021/03/14 04:45:35;;;;;;;19.25;6.82;;;3.60;99.90;;;;;;4958294;27;20086;-79
2021/03/14 04:47:58;;;;;;;26.27;7.40;;;3.60;99.90;;;;;;4956796;27;20078;-79
2021/03/14 04:50:23;;;;;;;22.45;5.90;;;3.70;99.90;;;;;;4954416;27;20155;-80
2021/03/14 04:52:51;;;;;;;13.52;5.90;;;3.70;99.90;;;;;;4957781;27;20448;-81
2021/03/14 04:55:16;;;;;;;19.33;8.57;;;3.70;99.90;;;;;;4955974;27;20089;-80
2021/03/14 04:57:41;;;;;;;17.40;6.90;;;3.70;99.90;;;;;;4952476;27;20175;-79
2021/03/14 05:00:09;;;;;;;17.83;6.30;;;3.70;99.90;;;;;;4959249;27;21025;-80
2021/03/14 05:02:34;;;;;;;15.35;6.28;;;3.70;99.90;;;;;;4956918;27;20569;-79
2021/03/14 05:04:59;;;;;;;18.48;6.30;;;3.70;99.90;;;;;;4956586;27;20085;-80
2021/03/14 05:07:23;;;;;;;16.57;5.90;;;3.70;99.90;;;;;;4945780;27;20088;-80
2021/03/14 05:09:46;;;;;;;14.15;5.95;;;3.70;99.90;;;;;;4955933;27;20090;-80
2021/03/14 05:12:10;;;;;;;13.88;6.30;;;3.80;99.90;;;;;;4956768;27;20085;-79
2021/03/14 05:14:35;;;;;;;21.55;6.55;;;3.70;99.90;;;;;;4946022;27;20081;-79
2021/03/14 05:16:59;;;;;;;13.48;5.85;;;;;;;;;;4957646;27;20089;-79
2021/03/14 05:19:22;;;;;;;10.88;5.07;;;3.70;99.90;;;;;;4945256;27;20093;-80
2021/03/14 05:21:45;;;;;;;16.48;6.00;;;3.70;99.90;;;;;;4958695;27;20093;-80
2021/03/14 05:24:12;;;;;;;16.95;6.63;;;3.80;99.90;;;;;;4947991;27;20169;-79
2021/03/14 05:26:36;;;;;;;17.38;6.18;;;3.80;99.90;;;;;;4946137;27;20169;-80
2021/03/14 05:28:59;;;;;;;22.15;6.93;;;3.80;99.90;;;;;;4955897;27;20085;-80
2021/03/14 05:31:33;;;;;;;20.95;6.40;;;3.80;99.90;;;;;;4951277;27;20097;-80
2021/03/14 05:33:58;;;;;;;16.50;6.10;;;3.70;99.90;;;;;;4955679;27;20086;-79
2021/03/14 05:36:22;;;;;;;18.17;6.50;;;3.70;99.90;;;;;;4952565;27;20528;-80
2021/03/14 05:38:45;;;;;;;18.98;6.68;;;3.80;99.90;;;;;;4948651;27;20082;-81
2021/03/14 05:41:09;;;;;;;15.80;5.93;;;3.80;99.90;;;;;;4954013;27;20563;-79
2021/03/14 05:43:33;;;;;;;21.88;7.15;;;3.80;99.90;;;;;;4949344;27;20094;-79
2021/03/14 05:45:57;;;;;;;21.33;6.47;;;3.80;99.90;;;;;;4955464;27;20162;-78
2021/03/14 05:48:20;;;;;;;19.45;6.60;;;;;;;;;;4954100;27;20425;-79
2021/03/14 05:50:43;;;;;;;20.13;6.68;;;;;;;;;;4951743;27;20082;-79
2021/03/14 05:53:09;;;;;;;19.73;6.57;;;3.80;99.90;;;;;;4951415;27;20097;-79
2021/03/14 05:55:31;;;;;;;16.15;6.53;;;3.80;99.90;;;;;;4950193;27;20164;-79
2021/03/14 05:57:57;;;;;;;23.35;6.72;;;3.80;99.90;;;;;;4953636;27;20100;-80
2021/03/14 06:00:25;;;;;;;18.13;6.57;;;3.80;99.90;;;;;;4946266;27;20102;-79
2021/03/14 06:02:48;;;;;;;21.80;6.25;;;3.90;99.90;;;;;;4954932;27;20448;-79
2021/03/14 06:05:14;;;;;;;15.63;5.93;;;3.90;99.90;;;;;;4954552;27;20094;-80
2021/03/14 06:07:38;;;;;;;14.88;6.00;;;;;;;;;;4955219;27;20093;-80
2021/03/14 06:10:01;;;;;;;17.40;7.35;;;3.90;99.90;;;;;;4954070;27;20494;-79
2021/03/14 06:12:25;;;;;;;14.63;6.47;;;3.90;99.90;;;;;;4951037;27;20536;-79
2021/03/14 06:14:47;;;;;;;14.45;6.05;;;;;;;;;;4951370;27;20540;-79
2021/03/14 06:17:11;;;;;;;19.20;6.57;;;3.90;99.90;;;;;;4953374;27;20528;-79
2021/03/14 06:19:35;;;;;;;21.33;6.03;;;4.00;99.90;;;;;;4953138;27;20615;-79
2021/03/14 06:22:20;;;;;;;11.30;5.60;;;4.00;99.90;;;;;;4954778;27;20085;-79
2021/03/14 06:24:44;;;;;;;17.13;6.43;;;4.00;99.90;;;;;;4950218;27;20113;-78
2021/03/14 06:27:07;;;;;;;14.20;5.80;;;4.10;99.90;;;;;;4952043;27;20510;-78
2021/03/14 06:29:29;;;;;;;19.55;6.00;;;4.50;99.90;;;;;;4954037;27;20118;-79
2021/03/14 06:31:55;;;;;;;15.73;4.93;;;4.10;99.90;;;;;;4951158;27;20763;-80
2021/03/14 06:34:28;;;;;;;15.70;5.38;;;4.10;99.90;;;;;;4953164;27;20096;-80
2021/03/14 06:36:51;;;;;;;16.90;5.40;;;4.10;99.90;;;;;;4954754;27;20475;-80
2021/03/14 06:39:22;;;;;;;13.32;4.80;;;4.00;99.90;;;;;;4940084;27;20138;-79
2021/03/14 06:41:47;;;;;;;13.05;4.60;;;;;;;;;;4954595;27;20085;-79
2021/03/14 06:44:22;;;;;;;13.52;4.13;;;4.00;99.90;;;;;;4956035;28;20097;-79
2021/03/14 06:46:45;;;;;;;8.98;4.55;;;4.10;99.90;;;;;;4952863;28;20078;-80
2021/03/14 06:49:11;;;;;;;11.00;3.92;;;4.10;99.90;;;;;;4954247;27;20163;-79
2021/03/14 06:51:37;;;;;;;9.50;4.10;;;4.10;99.90;;;;;;4959099;28;20097;-79
2021/03/14 06:54:24;;;;;;;14.70;3.65;;;4.10;99.90;;;;;;4953255;28;20115;-79
2021/03/14 06:56:58;;;;;;;;;;;4.10;99.90;;;;;;4954354;27;20118;-80
2021/03/14 06:59:20;;;;;;;8.63;2.70;;;4.10;99.90;;;;;;4958956;27;19962;-79
2021/03/14 07:02:00;;;;;;;8.45;2.47;;;4.10;99.90;;;;;;4954686;27;20086;-79
2021/03/14 07:04:32;;;;;;;8.07;2.63;;;4.10;99.90;;;;;;4957808;27;20088;-79
2021/03/14 07:06:56;;;;;;;5.90;2.45;;;;;;;;;;4955683;27;20101;-79
2021/03/14 07:09:23;;;;;;;6.90;3.15;;;4.10;99.90;;;;;;4956460;27;20101;-79
2021/03/14 07:11:48;;;;;;;3.55;1.92;;;5.10;99.90;;;;;;4956016;27;20097;-80
2021/03/14 07:14:14;;;;;;;8.70;2.72;;;4.10;99.90;;;;;;4950359;27;20093;-79
2021/03/14 07:16:42;;;;;;;7.20;2.63;;;4.10;99.90;;;;;;4944973;27;20094;-80
2021/03/14 07:19:07;;;;;;;11.25;2.47;;;4.20;99.90;;;;;;4946345;27;20104;-79
2021/03/14 07:21:29;;;;;;;19.95;3.90;;;4.20;99.90;;;;;;4953858;27;20094;-80
2021/03/14 07:23:52;;;;;;;10.30;2.95;;;4.30;99.90;;;;;;4952991;27;20129;-79
2021/03/14 07:26:35;;;;;;;5.68;2.58;;;4.40;99.90;;;;;;4951990;27;20097;-79
2021/03/14 07:28:59;;;;;;;8.85;3.05;;;4.40;99.90;;;;;;4957729;27;20104;-79
2021/03/14 07:31:23;;;;;;;10.05;3.00;;;4.40;99.90;;;;;;4957358;27;20089;-83
2021/03/14 07:33:45;;;;;;;5.25;2.45;;;4.50;99.90;;;;;;4958418;27;20092;-79
2021/03/14 07:36:08;;;;;;;10.13;3.28;;;4.60;99.90;;;;;;4944517;27;20854;-79
2021/03/14 07:38:32;;;;;;;9.00;3.08;;;4.60;99.90;;;;;;4958601;27;20092;-78
2021/03/14 07:40:55;;;;;;;8.95;3.08;;;4.70;99.90;;;;;;4960929;27;20086;-79
2021/03/14 07:43:18;;;;;;;12.70;2.92;;;4.70;99.90;;;;;;4957794;27;20615;-80
2021/03/14 07:45:40;;;;;;;4.22;2.13;;;4.70;99.90;;;;;;4951642;27;20086;-81
2021/03/14 07:48:07;;;;;;;9.43;2.97;;;4.60;99.90;;;;;;4956481;27;20448;-79
2021/03/14 07:50:36;;;;;;;9.27;2.90;;;4.60;99.90;;;;;;4956554;27;20116;-80
2021/03/14 07:53:08;;;;;;;7.25;2.35;;;4.60;99.90;;;;;;4947905;27;20097;-79
2021/03/14 07:55:32;;;;;;;10.57;3.30;;;;;;;;;;4944614;27;20100;-80
2021/03/14 07:57:55;;;;;;;5.68;2.53;;;4.70;99.90;;;;;;4953700;27;20093;-78
2021/03/14 08:00:31;;;;;;;6.45;2.60;;;4.80;99.90;;;;;;4955680;27;20169;-79
2021/03/14 08:02:55;;;;;;;8.32;2.95;;;4.80;99.90;;;;;;4960476;27;20089;-79
2021/03/14 08:05:40;;;;;;;3.97;2.38;;;3.90;99.90;;;;;;4948061;27;20429;-80
2021/03/14 08:08:03;;;;;;;4.13;2.65;;;4.80;99.90;;;;;;4950193;27;20142;-79
2021/03/14 08:10:38;;;;;;;7.82;2.50;;;4.80;99.90;;;;;;4954400;27;20299;-79
2021/03/14 08:13:03;;;;;;;10.05;3.13;;;4.70;99.90;;;;;;4953153;27;20087;-79
2021/03/14 08:15:28;;;;;;;9.10;3.38;;;4.80;99.90;;;;;;4956617;27;20089;-79
2021/03/14 08:17:53;;;;;;;4.97;2.60;;;4.80;99.90;;;;;;4960007;27;20077;-79
2021/03/14 08:20:34;;;;;;;5.93;2.35;;;4.60;99.90;;;;;;4960005;27;20085;-79
2021/03/14 08:23:01;;;;;;;4.68;2.72;;;4.60;99.90;;;;;;4952415;27;20096;-79
2021/03/14 08:25:27;;;;;;;13.98;4.03;;;4.50;99.90;;;;;;4955919;27;20089;-80
2021/03/14 08:27:52;;;;;;;8.25;3.40;;;4.50;99.90;;;;;;4948792;27;20140;-79
2021/03/14 08:30:54;;;;;;;4.90;2.90;;;4.50;99.90;;;;;;4954948;27;20085;-79
2021/03/14 08:33:28;;;;;;;7.28;3.42;;;4.60;99.90;;;;;;4935692;27;20077;-80
2021/03/14 08:35:52;;;;;;;7.35;2.92;;;4.60;99.90;;;;;;4954737;27;20092;-79
2021/03/14 08:38:34;;;;;;;7.47;2.95;;;4.60;99.90;;;;;;4952090;27;20536;-80
2021/03/14 08:41:29;;;;;;;9.30;3.25;;;4.70;99.90;;;;;;4963717;27;20162;-79
2021/03/14 08:43:55;;;;;;;7.32;2.58;;;4.70;99.90;;;;;;4920477;27;20085;-79
2021/03/14 08:46:17;;;;;;;7.60;2.35;;;4.80;99.90;;;;;;4954768;27;20447;-79
2021/03/14 08:48:41;;;;;;;11.75;2.55;;;4.80;99.90;;;;;;4957652;27;20128;-78
2021/03/14 08:51:06;;;;;;;11.07;2.70;;;4.80;99.90;;;;;;4956741;27;20126;-79
2021/03/14 08:53:30;;;;;;;6.15;2.60;;;4.80;99.90;;;;;;4958799;27;20094;-80
2021/03/14 08:55:54;;;;;;;5.15;2.53;;;4.70;99.90;;;;;;4958744;27;20085;-80
2021/03/14 08:58:17;;;;;;;8.02;3.58;;;4.80;99.90;;;;;;4958099;27;20109;-79
2021/03/14 09:00:41;;;;;;;5.75;2.63;;;5.00;99.90;;;;;;4943595;27;20146;-79
2021/03/14 09:03:11;;;;;;;7.68;2.67;;;5.10;99.90;;;;;;4903182;27;20096;-79
2021/03/14 09:06:22;;;;;;;4.40;2.30;;;5.20;99.90;;;;;;4905277;27;20091;-79
2021/03/14 09:08:59;;;;;;;7.82;2.55;;;5.10;99.90;;;;;;4894312;27;20086;-81
2021/03/14 09:11:40;;;;;;;4.53;2.15;;;4.80;99.90;;;;;;4902861;27;20123;-80
2021/03/14 09:14:38;;;;;;;8.18;2.13;;;4.50;99.90;;;;;;4908183;27;20165;-80
2021/03/14 09:17:29;;;;;;;5.50;1.98;;;4.10;99.90;;;;;;4955059;27;20081;-78
2021/03/14 09:20:00;;;;;;;7.10;2.38;;;3.90;99.90;;;;;;4937742;27;20093;-80
2021/03/14 09:22:29;;;;;;;8.55;2.80;;;3.90;99.90;;;;;;4928738;27;20081;-79
2021/03/14 09:25:22;;;;;;;7.85;3.63;;;4.20;99.90;;;;;;4911403;27;20089;-79
2021/03/14 09:27:47;;;;;;;6.10;2.83;;;4.30;99.90;;;;;;4908391;27;20097;-80
2021/03/14 09:30:14;;;;;;;8.85;2.80;;;4.50;99.90;;;;;;4915673;27;20101;-82
2021/03/14 09:32:42;;;;;;;5.07;2.10;;;4.60;99.90;;;;;;4877497;27;20441;-82
2021/03/14 09:35:24;;;;;;;4.90;2.45;;;4.80;99.90;;;;;;4944198;27;20097;-80
2021/03/14 09:38:11;;;;;;;10.50;3.05;;;4.70;99.90;;;;;;4913163;27;20102;-83
2021/03/14 09:41:03;;;;;;;9.88;2.70;;;4.80;99.90;;;;;;4905243;27;20156;-79
2021/03/14 09:43:36;;;;;;;7.18;2.42;;;5.10;99.90;;;;;;4908951;27;20085;-80
2021/03/14 09:56:04;;;;;;;8.32;2.88;;;4.80;99.90;;;;;;4898830;27;20481;-80
2021/03/14 09:58:52;;;;;;;6.07;2.88;;;4.90;99.90;;;;;;4899135;27;20112;-79
2021/03/14 10:01:33;;;;;;;14.23;3.58;;;5.10;99.90;;;;;;4886437;27;20102;-79
2021/03/14 10:07:24;;;;;;;7.63;2.88;;;5.30;99.90;;;;;;4894734;27;20091;-79
2021/03/14 10:16:32;;;;;;;4.38;2.17;;;5.60;99.90;;;;;;4919423;27;20110;-82
2021/03/14 10:19:05;;;;;;;6.75;3.03;;;5.50;99.90;;;;;;4915940;27;20085;-81
2021/03/14 10:21:42;;;;;;;11.48;3.30;;;5.60;99.90;;;;;;4915027;27;25434;-80
2021/03/14 10:27:50;;;;;;;6.10;2.05;;;5.30;99.90;;;;;;4893803;27;20089;-81
2021/03/14 10:30:20;;;;;;;4.72;1.77;;;5.20;99.90;;;;;;4888326;27;20086;-79
2021/03/14 10:33:37;;;;;;;6.60;2.63;;;5.20;99.90;;;;;;4892111;27;20078;-80
2021/03/14 10:36:27;;;;;;;6.68;2.17;;;5.50;99.90;;;;;;4902583;27;20198;-79
2021/03/14 10:39:03;;;;;;;3.60;1.77;;;5.50;99.90;;;;;;4880528;27;20090;-79
2021/03/14 10:45:10;;;;;;;2.30;1.25;;;5.50;99.90;;;;;;4875955;28;20171;-81
2021/03/14 10:48:13;;;;;;;8.52;1.92;;;5.50;99.90;;;;;;4879453;28;20136;-79
2021/03/14 10:51:14;;;;;;;7.95;2.55;;;5.80;99.90;;;;;;4879315;28;21382;-81
2021/03/14 10:54:20;;;;;;;6.22;2.13;;;5.90;99.90;;;;;;4878276;28;20123;-79
2021/03/14 10:57:06;;;;;;;9.23;2.25;;;5.90;99.90;;;;;;4867634;28;20143;-81
2021/03/14 11:00:22;;;;;;;10.73;3.85;;;5.90;99.90;;;;;;4862555;28;20085;-80
2021/03/14 11:02:55;;;;;;;7.43;2.40;;;6.10;99.90;;;;;;4934766;28;20085;-78
2021/03/14 11:05:20;;;;;;;4.93;2.05;;;6.10;99.90;;;;;;4935212;28;20094;-80
2021/03/14 11:07:57;;;;;;;5.72;2.05;;;6.00;99.90;;;;;;4939760;28;20093;-80
2021/03/14 11:10:24;;;;;;;9.88;1.60;;;6.00;99.90;;;;;;4930832;28;20089;-79
2021/03/14 11:12:48;;;;;;;7.90;1.80;;;6.00;99.90;;;;;;4937866;28;20082;-81
2021/03/14 11:15:23;;;;;;;3.97;1.85;;;6.10;99.90;;;;;;4934728;28;20117;-79
2021/03/14 11:17:46;;;;;;;4.70;1.90;;;6.10;99.90;;;;;;4920649;28;20100;-80
2021/03/14 11:20:10;;;;;;;7.35;2.28;;;6.00;99.90;;;;;;4933280;28;20106;-79
2021/03/14 11:22:34;;;;;;;6.20;1.88;;;6.20;99.90;;;;;;4939058;28;22607;-80
2021/03/14 11:24:58;;;;;;;6.07;1.90;;;6.30;99.90;;;;;;4938145;28;20106;-79
2021/03/14 11:27:21;;;;;;;6.32;2.00;;;6.30;99.90;;;;;;4934984;28;20085;-80
2021/03/14 11:29:45;;;;;;;10.38;2.35;;;6.40;99.90;;;;;;4936302;28;20086;-79
2021/03/14 11:32:11;;;;;;;7.75;2.22;;;6.30;99.90;;;;;;4930251;28;20095;-80
2021/03/14 11:34:33;;;;;;;8.23;2.50;;;6.50;99.90;;;;;;4933068;28;20090;-80
2021/03/14 11:36:57;;;;;;;5.53;2.65;;;6.70;99.90;;;;;;4940969;28;20090;-79
2021/03/14 11:39:21;;;;;;;6.78;2.50;;;6.30;99.90;;;;;;4941188;28;20082;-80
2021/03/14 11:41:47;;;;;;;5.15;2.08;;;6.70;99.90;;;;;;4938485;28;20089;-82
2021/03/14 11:44:10;;;;;;;9.70;2.20;;;6.50;99.90;;;;;;4939049;28;20082;-79
2021/03/14 11:46:33;;;;;;;6.57;1.90;;;6.30;99.90;;;;;;4941177;28;20117;-80
2021/03/14 11:48:55;;;;;;;8.60;1.50;;;6.30;99.90;;;;;;4944611;28;21018;-79
2021/03/14 11:51:18;;;;;;;7.40;2.60;;;6.30;99.90;;;;;;4920959;28;20097;-80
2021/03/14 11:53:41;;;;;;;15.20;2.92;;;6.30;99.90;;;;;;4927992;28;20457;-79
2021/03/14 11:56:04;;;;;;;6.78;2.25;;;6.10;99.90;;;;;;4939071;28;20078;-79
2021/03/14 11:58:28;;;;;;;8.98;2.33;;;6.20;99.90;;;;;;4898540;28;20090;-79
2021/03/14 12:00:50;;;;;;;12.20;2.60;;;6.30;99.90;;;;;;4935969;28;20600;-80
2021/03/14 12:03:15;;;;;;;9.80;2.78;;;6.40;99.90;;;;;;4938028;28;20101;-79
2021/03/14 12:05:44;;;;;;;5.00;2.00;;;6.40;99.90;;;;;;4926618;28;20780;-80
2021/03/14 12:08:08;;;;;;;5.50;2.40;;;6.40;99.90;;;;;;4936252;28;20086;-81
2021/03/14 12:10:31;;;;;;;9.65;2.63;;;6.60;99.90;;;;;;4938663;28;20464;-81
2021/03/14 12:12:55;;;;;;;3.75;1.77;;;6.40;99.90;;;;;;4942413;28;20093;-79
2021/03/14 12:15:20;;;;;;;6.35;2.30;;;6.20;99.90;;;;;;4943406;28;20086;-81
2021/03/14 12:17:45;;;;;;;7.20;2.00;;;6.30;99.90;;;;;;4942479;28;20087;-78
2021/03/14 12:20:09;;;;;;;8.95;1.80;;;6.20;99.90;;;;;;4930808;28;20086;-80
2021/03/14 12:22:33;;;;;;;3.47;1.33;;;6.50;99.90;;;;;;4936930;28;20082;-78
2021/03/14 12:24:56;;;;;;;8.27;2.20;;;6.90;99.90;;;;;;4942287;28;20083;-80
2021/03/14 12:27:18;;;;;;;6.15;2.00;;;7.30;99.90;;;;;;4941497;28;20139;-78
2021/03/14 12:29:42;;;;;;;4.15;1.65;;;7.10;99.90;;;;;;4945361;28;20608;-79
2021/03/14 12:32:07;;;;;;;7.45;2.25;;;7.30;99.90;;;;;;4938047;28;20093;-79
2021/03/14 12:34:29;;;;;;;3.78;1.67;;;7.50;99.90;;;;;;4940507;28;20085;-78
2021/03/14 12:36:53;;;;;;;3.70;1.83;;;7.20;99.90;;;;;;4934552;28;20089;-78
2021/03/14 12:39:15;;;;;;;10.07;1.98;;;7.00;99.90;;;;;;4941383;28;20097;-77
2021/03/14 12:41:38;;;;;;;10.10;2.25;;;7.00;99.90;;;;;;4932460;28;20090;-79
2021/03/14 12:44:01;;;;;;;8.43;2.20;;;7.00;99.90;;;;;;4937987;28;20086;-79
2021/03/14 12:46:24;;;;;;;8.00;1.90;;;7.20;99.90;;;;;;4943110;28;20168;-78
2021/03/14 12:48:47;;;;;;;7.53;2.42;;;;;;;;;;4938561;28;20084;-79
2021/03/14 12:51:10;;;;;;;13.73;2.55;;;7.20;99.90;;;;;;4942688;28;20102;-79
2021/03/14 12:53:38;;;;;;;5.60;1.52;;;6.70;99.90;;;;;;4937574;28;20090;-79
2021/03/14 12:56:02;;;;;;;7.90;1.33;;;6.60;99.90;;;;;;4939533;28;20160;-81
2021/03/14 12:58:33;;;;;;;6.00;2.10;;;6.90;99.90;;;;;;4936984;28;20158;-79
2021/03/14 13:00:59;;;;;;;11.63;1.15;;;6.50;99.90;;;;;;4941724;28;20086;-81
2021/03/14 13:03:21;;;;;;;8.20;1.35;;;6.20;99.90;;;;;;4939378;28;20169;-81
2021/03/14 13:05:45;;;;;;;9.07;1.75;;;6.00;99.90;;;;;;4939722;28;20456;-79
2021/03/14 13:08:08;;;;;;;5.78;1.40;;;6.10;99.90;;;;;;4939971;28;20440;-78
2021/03/14 13:10:32;;;;;;;6.72;1.20;;;6.40;99.90;;;;;;4939649;28;20570;-79
2021/03/14 13:12:55;;;;;;;10.48;2.00;;;6.90;99.90;;;;;;4942964;28;20445;-78
2021/03/14 13:15:21;;;;;;;5.47;1.73;;;7.00;99.90;;;;;;4931551;28;20086;-79
2021/03/14 13:17:46;;;;;;;6.72;1.77;;;6.60;99.90;;;;;;4934249;28;20448;-79
2021/03/14 13:20:11;;;;;;;4.75;1.48;;;6.40;99.90;;;;;;4939426;28;20440;-79
2021/03/14 13:22:34;;;;;;;8.13;1.98;;;6.30;99.90;;;;;;4937435;28;20090;-80
2021/03/14 13:24:57;;;;;;;7.88;1.50;;;6.60;99.90;;;;;;4942313;27;20094;-80